sensor_id;sensor_type;location;lat;lon;timestamp;P1;durP1;ratioP1;P2;durP2;ratioP2
54261;SDS011;40174;52.364;6.452;2023-02-03T00:02:03;9.77;;;3.17;;
54261;SDS011;40174;52.364;6.452;2023-02-03T00:04:31;7.18;;;2.80;;
54261;SDS011;40174;52.364;6.452;2023-02-03T00:06:58;10.50;;;3.15;;
54261;SDS011;40174;52.364;6.452;2023-02-03T00:09:25;12.27;;;3.22;;
54261;SDS011;40174;52.364;6.452;2023-02-03T00:11:51;9.63;;;3.67;;
54261;SDS011;40174;52.364;6.452;2023-02-03T00:14:19;15.25;;;4.03;;
54261;SDS011;40174;52.364;6.452;2023-02-03T00:16:45;16.90;;;4.05;;
54261;SDS011;40174;52.364;6.452;2023-02-03T00:19:14;9.10;;;3.28;;
54261;SDS011;40174;52.364;6.452;2023-02-03T00:21:40;12.57;;;3.95;;
54261;SDS011;40174;52.364;6.452;2023-02-03T00:24:07;10.65;;;3.90;;
54261;SDS011;40174;52.364;6.452;2023-02-03T00:26:34;11.07;;;3.67;;
54261;SDS011;40174;52.364;6.452;2023-02-03T00:29:05;14.25;;;4.47;;
54261;SDS011;40174;52.364;6.452;2023-02-03T00:31:33;16.23;;;4.70;;
54261;SDS011;40174;52.364;6.452;2023-02-03T00:33:59;14.15;;;4.38;;
54261;SDS011;40174;52.364;6.452;2023-02-03T00:36:27;15.52;;;4.70;;
54261;SDS011;40174;52.364;6.452;2023-02-03T00:38:54;15.85;;;4.82;;
54261;SDS011;40174;52.364;6.452;2023-02-03T00:41:21;13.75;;;4.68;;
54261;SDS011;40174;52.364;6.452;2023-02-03T00:43:50;10.63;;;4.45;;
54261;SDS011;40174;52.364;6.452;2023-02-03T00:46:17;14.48;;;4.65;;
54261;SDS011;40174;52.364;6.452;2023-02-03T00:48:43;16.35;;;5.07;;
54261;SDS011;40174;52.364;6.452;2023-02-03T00:51:11;15.07;;;4.13;;
54261;SDS011;40174;52.364;6.452;2023-02-03T00:53:39;12.27;;;4.05;;
54261;SDS011;40174;52.364;6.452;2023-02-03T00:56:06;18.40;;;4.70;;
54261;SDS011;40174;52.364;6.452;2023-02-03T00:58:36;12.38;;;4.78;;
54261;SDS011;40174;52.364;6.452;2023-02-03T01:01:03;20.23;;;5.10;;
54261;SDS011;40174;52.364;6.452;2023-02-03T01:03:30;10.98;;;3.97;;
54261;SDS011;40174;52.364;6.452;2023-02-03T01:06:06;17.75;;;4.53;;
54261;SDS011;40174;52.364;6.452;2023-02-03T01:08:34;13.77;;;4.43;;
54261;SDS011;40174;52.364;6.452;2023-02-03T01:11:05;14.07;;;4.05;;
54261;SDS011;40174;52.364;6.452;2023-02-03T01:13:33;10.10;;;3.50;;
54261;SDS011;40174;52.364;6.452;2023-02-03T01:15:59;13.82;;;3.53;;
54261;SDS011;40174;52.364;6.452;2023-02-03T01:18:26;11.75;;;3.72;;
54261;SDS011;40174;52.364;6.452;2023-02-03T01:20:53;12.75;;;3.88;;
54261;SDS011;40174;52.364;6.452;2023-02-03T01:23:19;13.45;;;3.40;;
54261;SDS011;40174;52.364;6.452;2023-02-03T01:25:46;15.77;;;3.55;;
54261;SDS011;40174;52.364;6.452;2023-02-03T01:28:14;10.10;;;3.00;;
54261;SDS011;40174;52.364;6.452;2023-02-03T01:30:40;11.05;;;3.67;;
54261;SDS011;40174;52.364;6.452;2023-02-03T01:33:07;7.03;;;2.92;;
54261;SDS011;40174;52.364;6.452;2023-02-03T01:35:34;8.73;;;2.88;;
54261;SDS011;40174;52.364;6.452;2023-02-03T01:38:01;9.82;;;2.88;;
54261;SDS011;40174;52.364;6.452;2023-02-03T01:40:28;11.80;;;3.38;;
54261;SDS011;40174;52.364;6.452;2023-02-03T01:42:54;7.72;;;3.58;;
54261;SDS011;40174;52.364;6.452;2023-02-03T01:45:23;8.35;;;3.05;;
54261;SDS011;40174;52.364;6.452;2023-02-03T01:47:51;11.10;;;3.13;;
54261;SDS011;40174;52.364;6.452;2023-02-03T01:50:21;11.02;;;3.10;;
54261;SDS011;40174;52.364;6.452;2023-02-03T01:52:53;14.55;;;3.75;;
54261;SDS011;40174;52.364;6.452;2023-02-03T01:55:24;17.10;;;3.15;;
54261;SDS011;40174;52.364;6.452;2023-02-03T01:57:56;12.38;;;3.03;;
54261;SDS011;40174;52.364;6.452;2023-02-03T02:00:28;10.82;;;2.60;;
54261;SDS011;40174;52.364;6.452;2023-02-03T02:02:55;13.60;;;3.33;;
54261;SDS011;40174;52.364;6.452;2023-02-03T02:05:27;13.70;;;2.90;;
54261;SDS011;40174;52.364;6.452;2023-02-03T02:07:57;9.18;;;2.65;;
54261;SDS011;40174;52.364;6.452;2023-02-03T02:10:27;13.40;;;2.95;;
54261;SDS011;40174;52.364;6.452;2023-02-03T02:12:54;9.35;;;2.80;;
54261;SDS011;40174;52.364;6.452;2023-02-03T02:15:22;11.48;;;2.83;;
54261;SDS011;40174;52.364;6.452;2023-02-03T02:18:02;9.85;;;2.85;;
54261;SDS011;40174;52.364;6.452;2023-02-03T02:20:41;8.40;;;2.83;;
54261;SDS011;40174;52.364;6.452;2023-02-03T02:26:47;9.32;;;2.15;;
54261;SDS011;40174;52.364;6.452;2023-02-03T02:29:26;6.95;;;2.17;;
54261;SDS011;40174;52.364;6.452;2023-02-03T02:32:08;6.32;;;1.90;;
54261;SDS011;40174;52.364;6.452;2023-02-03T02:34:48;9.32;;;2.60;;
54261;SDS011;40174;52.364;6.452;2023-02-03T02:37:25;6.07;;;2.35;;
54261;SDS011;40174;52.364;6.452;2023-02-03T02:40:06;9.25;;;1.88;;
54261;SDS011;40174;52.364;6.452;2023-02-03T02:42:42;8.73;;;1.67;;
54261;SDS011;40174;52.364;6.452;2023-02-03T02:45:19;5.15;;;1.45;;
54261;SDS011;40174;52.364;6.452;2023-02-03T02:47:55;10.35;;;2.20;;
54261;SDS011;40174;52.364;6.452;2023-02-03T02:50:27;8.73;;;1.95;;
54261;SDS011;40174;52.364;6.452;2023-02-03T02:52:58;9.65;;;1.70;;
54261;SDS011;40174;52.364;6.452;2023-02-03T02:55:25;7.65;;;1.60;;
54261;SDS011;40174;52.364;6.452;2023-02-03T02:58:00;9.43;;;1.80;;
54261;SDS011;40174;52.364;6.452;2023-02-03T03:00:31;6.30;;;2.42;;
54261;SDS011;40174;52.364;6.452;2023-02-03T03:03:09;9.77;;;2.53;;
54261;SDS011;40174;52.364;6.452;2023-02-03T03:05:42;9.70;;;1.70;;
54261;SDS011;40174;52.364;6.452;2023-02-03T03:08:15;7.68;;;1.60;;
54261;SDS011;40174;52.364;6.452;2023-02-03T03:10:47;4.60;;;1.27;;
54261;SDS011;40174;52.364;6.452;2023-02-03T03:13:17;6.63;;;1.63;;
54261;SDS011;40174;52.364;6.452;2023-02-03T03:15:50;6.07;;;1.88;;
54261;SDS011;40174;52.364;6.452;2023-02-03T03:18:20;6.05;;;1.45;;
54261;SDS011;40174;52.364;6.452;2023-02-03T03:20:49;7.72;;;1.58;;
54261;SDS011;40174;52.364;6.452;2023-02-03T03:23:19;3.88;;;1.27;;
54261;SDS011;40174;52.364;6.452;2023-02-03T03:25:53;6.75;;;1.40;;
54261;SDS011;40174;52.364;6.452;2023-02-03T03:28:26;2.92;;;1.10;;
54261;SDS011;40174;52.364;6.452;2023-02-03T03:30:56;12.38;;;1.60;;
54261;SDS011;40174;52.364;6.452;2023-02-03T03:33:24;5.22;;;1.20;;
54261;SDS011;40174;52.364;6.452;2023-02-03T03:35:52;9.27;;;1.63;;
54261;SDS011;40174;52.364;6.452;2023-02-03T03:38:23;6.80;;;1.20;;
54261;SDS011;40174;52.364;6.452;2023-02-03T03:40:58;13.23;;;1.77;;
54261;SDS011;40174;52.364;6.452;2023-02-03T03:43:30;4.57;;;0.95;;
54261;SDS011;40174;52.364;6.452;2023-02-03T03:46:00;4.78;;;1.13;;
54261;SDS011;40174;52.364;6.452;2023-02-03T03:48:34;5.97;;;1.30;;
54261;SDS011;40174;52.364;6.452;2023-02-03T03:51:05;4.57;;;0.80;;
54261;SDS011;40174;52.364;6.452;2023-02-03T03:53:37;5.50;;;1.05;;
54261;SDS011;40174;52.364;6.452;2023-02-03T03:56:08;7.80;;;1.50;;
54261;SDS011;40174;52.364;6.452;2023-02-03T03:58:39;3.63;;;1.08;;
54261;SDS011;40174;52.364;6.452;2023-02-03T04:01:10;3.97;;;0.75;;
54261;SDS011;40174;52.364;6.452;2023-02-03T04:03:42;5.50;;;0.85;;
54261;SDS011;40174;52.364;6.452;2023-02-03T04:06:11;4.82;;;0.70;;
54261;SDS011;40174;52.364;6.452;2023-02-03T04:08:38;6.72;;;1.08;;
54261;SDS011;40174;52.364;6.452;2023-02-03T04:11:05;4.05;;;1.05;;
54261;SDS011;40174;52.364;6.452;2023-02-03T04:13:32;5.25;;;0.98;;
54261;SDS011;40174;52.364;6.452;2023-02-03T04:15:59;4.50;;;0.90;;
54261;SDS011;40174;52.364;6.452;2023-02-03T04:18:25;5.38;;;1.20;;
54261;SDS011;40174;52.364;6.452;2023-02-03T04:20:53;2.38;;;0.70;;
54261;SDS011;40174;52.364;6.452;2023-02-03T04:23:20;8.15;;;1.00;;
54261;SDS011;40174;52.364;6.452;2023-02-03T04:25:47;3.90;;;1.08;;
54261;SDS011;40174;52.364;6.452;2023-02-03T04:28:13;5.50;;;0.80;;
54261;SDS011;40174;52.364;6.452;2023-02-03T04:30:40;2.58;;;0.77;;
54261;SDS011;40174;52.364;6.452;2023-02-03T04:33:06;7.68;;;1.33;;
54261;SDS011;40174;52.364;6.452;2023-02-03T04:35:33;5.55;;;1.10;;
54261;SDS011;40174;52.364;6.452;2023-02-03T04:38:01;4.32;;;1.40;;
54261;SDS011;40174;52.364;6.452;2023-02-03T04:40:28;6.13;;;0.80;;
54261;SDS011;40174;52.364;6.452;2023-02-03T04:42:54;4.30;;;1.42;;
54261;SDS011;40174;52.364;6.452;2023-02-03T04:45:21;2.45;;;0.75;;
54261;SDS011;40174;52.364;6.452;2023-02-03T04:47:50;4.32;;;1.13;;
54261;SDS011;40174;52.364;6.452;2023-02-03T04:50:17;10.20;;;1.35;;
54261;SDS011;40174;52.364;6.452;2023-02-03T04:52:43;5.40;;;0.80;;
54261;SDS011;40174;52.364;6.452;2023-02-03T04:55:11;1.35;;;0.68;;
54261;SDS011;40174;52.364;6.452;2023-02-03T04:57:38;3.15;;;1.20;;
54261;SDS011;40174;52.364;6.452;2023-02-03T05:00:05;4.30;;;1.17;;
54261;SDS011;40174;52.364;6.452;2023-02-03T05:02:35;4.10;;;0.77;;
54261;SDS011;40174;52.364;6.452;2023-02-03T05:05:02;7.75;;;1.45;;
54261;SDS011;40174;52.364;6.452;2023-02-03T05:07:29;8.05;;;1.10;;
54261;SDS011;40174;52.364;6.452;2023-02-03T05:09:56;8.07;;;1.85;;
54261;SDS011;40174;52.364;6.452;2023-02-03T05:12:23;3.50;;;0.95;;
54261;SDS011;40174;52.364;6.452;2023-02-03T05:14:50;4.75;;;0.90;;
54261;SDS011;40174;52.364;6.452;2023-02-03T05:17:17;5.20;;;1.55;;
54261;SDS011;40174;52.364;6.452;2023-02-03T05:19:43;7.05;;;1.10;;
54261;SDS011;40174;52.364;6.452;2023-02-03T05:22:10;3.17;;;1.13;;
54261;SDS011;40174;52.364;6.452;2023-02-03T05:24:36;2.75;;;0.88;;
54261;SDS011;40174;52.364;6.452;2023-02-03T05:27:03;10.73;;;1.55;;
54261;SDS011;40174;52.364;6.452;2023-02-03T05:29:31;3.03;;;0.93;;
54261;SDS011;40174;52.364;6.452;2023-02-03T05:31:57;5.43;;;1.23;;
54261;SDS011;40174;52.364;6.452;2023-02-03T05:34:24;4.97;;;1.08;;
54261;SDS011;40174;52.364;6.452;2023-02-03T05:36:50;5.65;;;1.23;;
54261;SDS011;40174;52.364;6.452;2023-02-03T05:39:17;4.32;;;1.40;;
54261;SDS011;40174;52.364;6.452;2023-02-03T05:41:44;3.45;;;0.75;;
54261;SDS011;40174;52.364;6.452;2023-02-03T05:44:18;5.13;;;0.93;;
54261;SDS011;40174;52.364;6.452;2023-02-03T05:46:47;6.57;;;1.30;;
54261;SDS011;40174;52.364;6.452;2023-02-03T05:49:14;10.25;;;1.75;;
54261;SDS011;40174;52.364;6.452;2023-02-03T05:51:41;6.43;;;1.13;;
54261;SDS011;40174;52.364;6.452;2023-02-03T05:54:08;5.22;;;1.00;;
54261;SDS011;40174;52.364;6.452;2023-02-03T05:56:34;2.92;;;1.10;;
54261;SDS011;40174;52.364;6.452;2023-02-03T05:59:01;5.65;;;1.42;;
54261;SDS011;40174;52.364;6.452;2023-02-03T06:01:28;5.72;;;1.25;;
54261;SDS011;40174;52.364;6.452;2023-02-03T06:03:56;8.65;;;2.00;;
54261;SDS011;40174;52.364;6.452;2023-02-03T06:06:22;4.40;;;1.35;;
54261;SDS011;40174;52.364;6.452;2023-02-03T06:08:49;6.15;;;0.98;;
54261;SDS011;40174;52.364;6.452;2023-02-03T06:11:20;7.97;;;1.20;;
54261;SDS011;40174;52.364;6.452;2023-02-03T06:13:48;9.43;;;1.40;;
54261;SDS011;40174;52.364;6.452;2023-02-03T06:16:15;6.43;;;1.27;;
54261;SDS011;40174;52.364;6.452;2023-02-03T06:18:41;7.53;;;1.30;;
54261;SDS011;40174;52.364;6.452;2023-02-03T06:21:09;6.78;;;1.60;;
54261;SDS011;40174;52.364;6.452;2023-02-03T06:23:36;5.93;;;1.50;;
54261;SDS011;40174;52.364;6.452;2023-02-03T06:26:02;12.45;;;1.30;;
54261;SDS011;40174;52.364;6.452;2023-02-03T06:28:29;6.20;;;1.35;;
54261;SDS011;40174;52.364;6.452;2023-02-03T06:30:57;11.73;;;1.85;;
54261;SDS011;40174;52.364;6.452;2023-02-03T06:33:24;14.40;;;1.73;;
54261;SDS011;40174;52.364;6.452;2023-02-03T06:35:50;5.63;;;1.20;;
54261;SDS011;40174;52.364;6.452;2023-02-03T06:38:20;6.63;;;1.45;;
54261;SDS011;40174;52.364;6.452;2023-02-03T06:40:47;3.75;;;1.38;;
54261;SDS011;40174;52.364;6.452;2023-02-03T06:43:14;7.57;;;1.38;;
54261;SDS011;40174;52.364;6.452;2023-02-03T06:45:40;5.13;;;1.30;;
54261;SDS011;40174;52.364;6.452;2023-02-03T06:48:09;6.05;;;1.30;;
54261;SDS011;40174;52.364;6.452;2023-02-03T06:50:36;3.67;;;1.17;;
54261;SDS011;40174;52.364;6.452;2023-02-03T06:53:02;6.55;;;1.63;;
54261;SDS011;40174;52.364;6.452;2023-02-03T06:55:30;10.15;;;2.17;;
54261;SDS011;40174;52.364;6.452;2023-02-03T06:57:57;7.57;;;1.80;;
54261;SDS011;40174;52.364;6.452;2023-02-03T07:00:24;5.85;;;1.30;;
54261;SDS011;40174;52.364;6.452;2023-02-03T07:02:54;6.60;;;1.60;;
54261;SDS011;40174;52.364;6.452;2023-02-03T07:05:21;13.25;;;1.58;;
54261;SDS011;40174;52.364;6.452;2023-02-03T07:07:50;5.97;;;1.10;;
54261;SDS011;40174;52.364;6.452;2023-02-03T07:10:17;5.38;;;2.05;;
54261;SDS011;40174;52.364;6.452;2023-02-03T07:12:45;6.85;;;1.55;;
54261;SDS011;40174;52.364;6.452;2023-02-03T07:15:12;7.85;;;1.67;;
54261;SDS011;40174;52.364;6.452;2023-02-03T07:17:38;7.20;;;1.55;;
54261;SDS011;40174;52.364;6.452;2023-02-03T07:20:05;5.78;;;1.50;;
54261;SDS011;40174;52.364;6.452;2023-02-03T07:22:33;14.45;;;1.98;;
54261;SDS011;40174;52.364;6.452;2023-02-03T07:25:00;11.90;;;1.73;;
54261;SDS011;40174;52.364;6.452;2023-02-03T07:27:27;8.52;;;1.45;;
54261;SDS011;40174;52.364;6.452;2023-02-03T07:29:56;5.32;;;1.15;;
54261;SDS011;40174;52.364;6.452;2023-02-03T07:32:23;7.22;;;1.30;;
54261;SDS011;40174;52.364;6.452;2023-02-03T07:34:49;9.48;;;1.33;;
54261;SDS011;40174;52.364;6.452;2023-02-03T07:37:16;6.55;;;1.17;;
54261;SDS011;40174;52.364;6.452;2023-02-03T07:39:43;4.78;;;1.13;;
54261;SDS011;40174;52.364;6.452;2023-02-03T07:42:10;5.18;;;1.48;;
54261;SDS011;40174;52.364;6.452;2023-02-03T07:44:42;9.10;;;1.95;;
54261;SDS011;40174;52.364;6.452;2023-02-03T07:47:10;7.13;;;1.17;;
54261;SDS011;40174;52.364;6.452;2023-02-03T07:49:36;10.38;;;1.50;;
54261;SDS011;40174;52.364;6.452;2023-02-03T07:52:03;9.27;;;1.60;;
54261;SDS011;40174;52.364;6.452;2023-02-03T07:54:30;9.40;;;1.70;;
54261;SDS011;40174;52.364;6.452;2023-02-03T07:56:56;6.18;;;1.05;;
54261;SDS011;40174;52.364;6.452;2023-02-03T07:59:23;5.78;;;1.45;;
54261;SDS011;40174;52.364;6.452;2023-02-03T08:01:50;7.25;;;1.80;;
54261;SDS011;40174;52.364;6.452;2023-02-03T08:04:21;5.00;;;1.10;;
54261;SDS011;40174;52.364;6.452;2023-02-03T08:06:48;6.50;;;1.15;;
54261;SDS011;40174;52.364;6.452;2023-02-03T08:09:15;19.17;;;2.10;;
54261;SDS011;40174;52.364;6.452;2023-02-03T08:11:41;7.47;;;1.70;;
54261;SDS011;40174;52.364;6.452;2023-02-03T08:14:08;9.55;;;1.65;;
54261;SDS011;40174;52.364;6.452;2023-02-03T08:16:35;5.38;;;1.38;;
54261;SDS011;40174;52.364;6.452;2023-02-03T08:19:01;11.77;;;1.95;;
54261;SDS011;40174;52.364;6.452;2023-02-03T08:21:29;6.72;;;1.70;;
54261;SDS011;40174;52.364;6.452;2023-02-03T08:23:56;8.43;;;1.45;;
54261;SDS011;40174;52.364;6.452;2023-02-03T08:26:22;7.00;;;1.52;;
54261;SDS011;40174;52.364;6.452;2023-02-03T08:28:49;5.63;;;1.20;;
54261;SDS011;40174;52.364;6.452;2023-02-03T08:31:16;6.43;;;1.42;;
54261;SDS011;40174;52.364;6.452;2023-02-03T08:33:42;12.02;;;1.70;;
54261;SDS011;40174;52.364;6.452;2023-02-03T08:36:09;8.63;;;1.55;;
54261;SDS011;40174;52.364;6.452;2023-02-03T08:38:37;8.35;;;1.83;;
54261;SDS011;40174;52.364;6.452;2023-02-03T08:41:07;9.55;;;1.13;;
54261;SDS011;40174;52.364;6.452;2023-02-03T08:43:34;8.55;;;1.27;;
54261;SDS011;40174;52.364;6.452;2023-02-03T08:46:01;11.20;;;1.20;;
54261;SDS011;40174;52.364;6.452;2023-02-03T08:48:28;4.88;;;1.40;;
54261;SDS011;40174;52.364;6.452;2023-02-03T08:50:55;7.93;;;1.35;;
54261;SDS011;40174;52.364;6.452;2023-02-03T08:53:22;9.57;;;1.70;;
54261;SDS011;40174;52.364;6.452;2023-02-03T08:55:50;5.88;;;1.27;;
54261;SDS011;40174;52.364;6.452;2023-02-03T08:58:17;3.33;;;1.27;;
54261;SDS011;40174;52.364;6.452;2023-02-03T09:00:44;4.63;;;1.10;;
54261;SDS011;40174;52.364;6.452;2023-02-03T09:03:13;7.97;;;1.40;;
54261;SDS011;40174;52.364;6.452;2023-02-03T09:05:40;8.00;;;1.70;;
54261;SDS011;40174;52.364;6.452;2023-02-03T09:08:07;9.50;;;1.60;;
54261;SDS011;40174;52.364;6.452;2023-02-03T09:10:34;6.53;;;1.50;;
54261;SDS011;40174;52.364;6.452;2023-02-03T09:13:02;8.02;;;2.00;;
54261;SDS011;40174;52.364;6.452;2023-02-03T09:15:31;5.15;;;1.30;;
54261;SDS011;40174;52.364;6.452;2023-02-03T09:17:57;11.90;;;2.08;;
54261;SDS011;40174;52.364;6.452;2023-02-03T09:20:24;5.25;;;1.40;;
54261;SDS011;40174;52.364;6.452;2023-02-03T09:22:50;5.35;;;1.63;;
54261;SDS011;40174;52.364;6.452;2023-02-03T09:25:19;8.57;;;1.48;;
54261;SDS011;40174;52.364;6.452;2023-02-03T09:27:45;11.95;;;1.92;;
54261;SDS011;40174;52.364;6.452;2023-02-03T09:30:14;7.07;;;0.98;;
54261;SDS011;40174;52.364;6.452;2023-02-03T09:32:40;5.85;;;1.25;;
54261;SDS011;40174;52.364;6.452;2023-02-03T09:35:07;6.53;;;1.08;;
54261;SDS011;40174;52.364;6.452;2023-02-03T09:37:33;13.60;;;1.80;;
54261;SDS011;40174;52.364;6.452;2023-02-03T09:40:00;8.63;;;2.05;;
54261;SDS011;40174;52.364;6.452;2023-02-03T09:42:28;10.65;;;1.50;;
54261;SDS011;40174;52.364;6.452;2023-02-03T09:45:13;8.98;;;2.00;;
54261;SDS011;40174;52.364;6.452;2023-02-03T09:47:46;6.95;;;1.95;;
54261;SDS011;40174;52.364;6.452;2023-02-03T09:50:19;6.68;;;1.30;;
54261;SDS011;40174;52.364;6.452;2023-02-03T09:52:49;10.80;;;1.48;;
54261;SDS011;40174;52.364;6.452;2023-02-03T09:55:23;8.07;;;1.50;;
54261;SDS011;40174;52.364;6.452;2023-02-03T09:57:54;4.72;;;1.30;;
54261;SDS011;40174;52.364;6.452;2023-02-03T10:00:29;8.43;;;1.75;;
54261;SDS011;40174;52.364;6.452;2023-02-03T10:03:02;7.88;;;2.20;;
54261;SDS011;40174;52.364;6.452;2023-02-03T10:05:42;7.75;;;1.30;;
54261;SDS011;40174;52.364;6.452;2023-02-03T10:08:20;6.05;;;1.40;;
54261;SDS011;40174;52.364;6.452;2023-02-03T10:10:57;10.23;;;1.40;;
54261;SDS011;40174;52.364;6.452;2023-02-03T10:13:39;8.75;;;2.38;;
54261;SDS011;40174;52.364;6.452;2023-02-03T10:16:17;8.65;;;1.60;;
54261;SDS011;40174;52.364;6.452;2023-02-03T10:18:54;6.72;;;1.83;;
54261;SDS011;40174;52.364;6.452;2023-02-03T10:21:28;5.55;;;1.20;;
54261;SDS011;40174;52.364;6.452;2023-02-03T10:24:01;9.68;;;2.00;;
54261;SDS011;40174;52.364;6.452;2023-02-03T10:26:31;7.85;;;1.52;;
54261;SDS011;40174;52.364;6.452;2023-02-03T10:29:01;6.22;;;1.30;;
54261;SDS011;40174;52.364;6.452;2023-02-03T10:31:35;6.13;;;1.77;;
54261;SDS011;40174;52.364;6.452;2023-02-03T10:34:07;7.53;;;1.30;;
54261;SDS011;40174;52.364;6.452;2023-02-03T10:36:42;10.85;;;1.23;;
54261;SDS011;40174;52.364;6.452;2023-02-03T10:39:20;6.88;;;1.60;;
54261;SDS011;40174;52.364;6.452;2023-02-03T10:41:54;11.20;;;1.70;;
54261;SDS011;40174;52.364;6.452;2023-02-03T10:44:21;14.32;;;1.77;;
54261;SDS011;40174;52.364;6.452;2023-02-03T10:46:56;8.93;;;1.60;;
54261;SDS011;40174;52.364;6.452;2023-02-03T10:49:23;8.95;;;1.75;;
54261;SDS011;40174;52.364;6.452;2023-02-03T10:51:52;4.95;;;1.40;;
54261;SDS011;40174;52.364;6.452;2023-02-03T10:54:25;9.13;;;1.77;;
54261;SDS011;40174;52.364;6.452;2023-02-03T10:56:54;9.93;;;1.50;;
54261;SDS011;40174;52.364;6.452;2023-02-03T10:59:27;8.50;;;1.42;;
54261;SDS011;40174;52.364;6.452;2023-02-03T11:01:57;9.45;;;1.88;;
54261;SDS011;40174;52.364;6.452;2023-02-03T11:04:24;11.27;;;1.55;;
54261;SDS011;40174;52.364;6.452;2023-02-03T11:06:53;9.20;;;1.52;;
54261;SDS011;40174;52.364;6.452;2023-02-03T11:09:27;9.52;;;2.13;;
54261;SDS011;40174;52.364;6.452;2023-02-03T11:12:02;4.53;;;1.33;;
54261;SDS011;40174;52.364;6.452;2023-02-03T11:14:35;13.90;;;2.20;;
54261;SDS011;40174;52.364;6.452;2023-02-03T11:17:06;9.40;;;1.90;;
54261;SDS011;40174;52.364;6.452;2023-02-03T11:19:35;12.18;;;1.35;;
54261;SDS011;40174;52.364;6.452;2023-02-03T11:22:03;9.27;;;2.03;;
54261;SDS011;40174;52.364;6.452;2023-02-03T11:24:31;11.23;;;1.63;;
54261;SDS011;40174;52.364;6.452;2023-02-03T11:27:03;11.30;;;1.30;;
54261;SDS011;40174;52.364;6.452;2023-02-03T11:29:32;9.00;;;1.48;;
54261;SDS011;40174;52.364;6.452;2023-02-03T11:32:01;8.50;;;1.30;;
54261;SDS011;40174;52.364;6.452;2023-02-03T11:34:31;12.73;;;1.60;;
54261;SDS011;40174;52.364;6.452;2023-02-03T11:37:23;9.27;;;1.48;;
54261;SDS011;40174;52.364;6.452;2023-02-03T11:39:56;6.30;;;1.30;;
54261;SDS011;40174;52.364;6.452;2023-02-03T11:42:57;14.98;;;2.30;;
54261;SDS011;40174;52.364;6.452;2023-02-03T11:45:26;18.33;;;1.83;;
54261;SDS011;40174;52.364;6.452;2023-02-03T11:47:55;7.32;;;1.30;;
54261;SDS011;40174;52.364;6.452;2023-02-03T11:50:29;16.00;;;1.85;;
54261;SDS011;40174;52.364;6.452;2023-02-03T11:53:02;15.55;;;1.80;;
54261;SDS011;40174;52.364;6.452;2023-02-03T11:55:52;7.07;;;1.45;;
54261;SDS011;40174;52.364;6.452;2023-02-03T11:58:38;12.60;;;1.77;;
54261;SDS011;40174;52.364;6.452;2023-02-03T12:01:25;8.32;;;1.92;;
54261;SDS011;40174;52.364;6.452;2023-02-03T12:04:09;12.00;;;1.48;;
54261;SDS011;40174;52.364;6.452;2023-02-03T12:07:02;17.00;;;2.35;;
54261;SDS011;40174;52.364;6.452;2023-02-03T12:09:45;14.02;;;2.22;;
54261;SDS011;40174;52.364;6.452;2023-02-03T12:12:23;12.48;;;1.92;;
54261;SDS011;40174;52.364;6.452;2023-02-03T12:15:02;21.95;;;2.05;;
54261;SDS011;40174;52.364;6.452;2023-02-03T12:17:46;13.00;;;2.03;;
54261;SDS011;40174;52.364;6.452;2023-02-03T12:20:29;18.35;;;2.35;;
54261;SDS011;40174;52.364;6.452;2023-02-03T12:23:11;11.85;;;1.95;;
54261;SDS011;40174;52.364;6.452;2023-02-03T12:25:51;17.17;;;1.98;;
54261;SDS011;40174;52.364;6.452;2023-02-03T12:31:15;15.60;;;1.80;;
54261;SDS011;40174;52.364;6.452;2023-02-03T12:33:52;15.10;;;2.05;;
54261;SDS011;40174;52.364;6.452;2023-02-03T12:36:25;16.30;;;2.42;;
54261;SDS011;40174;52.364;6.452;2023-02-03T12:38:58;14.88;;;1.83;;
54261;SDS011;40174;52.364;6.452;2023-02-03T12:41:29;15.20;;;2.03;;
54261;SDS011;40174;52.364;6.452;2023-02-03T12:44:00;19.00;;;2.10;;
54261;SDS011;40174;52.364;6.452;2023-02-03T12:46:34;18.23;;;2.47;;
54261;SDS011;40174;52.364;6.452;2023-02-03T12:49:09;25.98;;;3.10;;
54261;SDS011;40174;52.364;6.452;2023-02-03T12:51:41;12.85;;;2.25;;
54261;SDS011;40174;52.364;6.452;2023-02-03T12:54:17;16.92;;;3.08;;
54261;SDS011;40174;52.364;6.452;2023-02-03T12:56:54;15.38;;;1.70;;
54261;SDS011;40174;52.364;6.452;2023-02-03T12:59:26;16.58;;;2.10;;
54261;SDS011;40174;52.364;6.452;2023-02-03T13:01:57;15.27;;;2.25;;
54261;SDS011;40174;52.364;6.452;2023-02-03T13:04:28;13.18;;;2.47;;
54261;SDS011;40174;52.364;6.452;2023-02-03T13:07:01;17.50;;;2.67;;
54261;SDS011;40174;52.364;6.452;2023-02-03T13:09:37;13.82;;;2.28;;
54261;SDS011;40174;52.364;6.452;2023-02-03T13:12:07;11.75;;;2.33;;
54261;SDS011;40174;52.364;6.452;2023-02-03T13:14:40;12.07;;;2.13;;
54261;SDS011;40174;52.364;6.452;2023-02-03T13:17:12;20.08;;;3.22;;
54261;SDS011;40174;52.364;6.452;2023-02-03T13:19:44;20.38;;;2.10;;
54261;SDS011;40174;52.364;6.452;2023-02-03T13:22:13;13.45;;;2.05;;
54261;SDS011;40174;52.364;6.452;2023-02-03T13:24:44;14.98;;;2.75;;
54261;SDS011;40174;52.364;6.452;2023-02-03T13:27:20;21.45;;;2.17;;
54261;SDS011;40174;52.364;6.452;2023-02-03T13:30:18;14.02;;;2.75;;
54261;SDS011;40174;52.364;6.452;2023-02-03T13:33:07;10.18;;;2.08;;
54261;SDS011;40174;52.364;6.452;2023-02-03T13:36:00;13.52;;;1.65;;
54261;SDS011;40174;52.364;6.452;2023-02-03T13:38:44;17.48;;;2.17;;
54261;SDS011;40174;52.364;6.452;2023-02-03T13:41:35;14.57;;;2.03;;
54261;SDS011;40174;52.364;6.452;2023-02-03T13:44:08;12.68;;;1.67;;
54261;SDS011;40174;52.364;6.452;2023-02-03T13:46:39;17.00;;;2.65;;
54261;SDS011;40174;52.364;6.452;2023-02-03T13:49:07;19.85;;;3.00;;
54261;SDS011;40174;52.364;6.452;2023-02-03T13:51:35;13.27;;;2.40;;
54261;SDS011;40174;52.364;6.452;2023-02-03T13:54:12;15.55;;;1.70;;
54261;SDS011;40174;52.364;6.452;2023-02-03T13:56:44;14.93;;;2.97;;
54261;SDS011;40174;52.364;6.452;2023-02-03T13:59:26;16.80;;;2.40;;
54261;SDS011;40174;52.364;6.452;2023-02-03T14:02:27;16.02;;;2.80;;
54261;SDS011;40174;52.364;6.452;2023-02-03T14:17:07;15.98;;;2.50;;
54261;SDS011;40174;52.364;6.452;2023-02-03T14:23:05;19.63;;;2.00;;
54261;SDS011;40174;52.364;6.452;2023-02-03T14:25:38;20.55;;;1.73;;
54261;SDS011;40174;52.364;6.452;2023-02-03T14:28:09;15.98;;;3.40;;
54261;SDS011;40174;52.364;6.452;2023-02-03T14:36:28;23.02;;;3.15;;
54261;SDS011;40174;52.364;6.452;2023-02-03T14:39:02;15.30;;;3.20;;
54261;SDS011;40174;52.364;6.452;2023-02-03T14:41:37;23.70;;;3.55;;
54261;SDS011;40174;52.364;6.452;2023-02-03T14:44:20;17.73;;;2.85;;
54261;SDS011;40174;52.364;6.452;2023-02-03T14:47:06;23.02;;;3.08;;
54261;SDS011;40174;52.364;6.452;2023-02-03T14:49:44;10.05;;;2.10;;
54261;SDS011;40174;52.364;6.452;2023-02-03T14:52:37;13.23;;;2.27;;
54261;SDS011;40174;52.364;6.452;2023-02-03T14:55:17;18.02;;;2.30;;
54261;SDS011;40174;52.364;6.452;2023-02-03T14:57:54;18.02;;;2.65;;
54261;SDS011;40174;52.364;6.452;2023-02-03T15:00:27;13.65;;;2.47;;
54261;SDS011;40174;52.364;6.452;2023-02-03T15:05:47;16.90;;;2.38;;
54261;SDS011;40174;52.364;6.452;2023-02-03T15:08:32;15.50;;;2.35;;
54261;SDS011;40174;52.364;6.452;2023-02-03T15:13:56;17.42;;;1.88;;
54261;SDS011;40174;52.364;6.452;2023-02-03T15:16:41;17.42;;;2.90;;
54261;SDS011;40174;52.364;6.452;2023-02-03T15:19:14;17.00;;;2.78;;
54261;SDS011;40174;52.364;6.452;2023-02-03T15:21:43;16.15;;;2.55;;
54261;SDS011;40174;52.364;6.452;2023-02-03T15:24:12;12.27;;;2.30;;
54261;SDS011;40174;52.364;6.452;2023-02-03T15:26:44;20.75;;;2.55;;
54261;SDS011;40174;52.364;6.452;2023-02-03T15:29:17;14.18;;;1.92;;
54261;SDS011;40174;52.364;6.452;2023-02-03T15:34:21;16.65;;;2.17;;
54261;SDS011;40174;52.364;6.452;2023-02-03T15:36:52;15.80;;;3.15;;
54261;SDS011;40174;52.364;6.452;2023-02-03T15:39:28;16.77;;;2.42;;
54261;SDS011;40174;52.364;6.452;2023-02-03T15:42:01;22.13;;;2.75;;